Axantha II — CQKN — position and weather

sailwx.info

Track history (hours):
 
Tides and Currents Weather Stations Pressure Air Temp Water Temp Dewpoint Dewpoint Depression Visibility Wind Speed Wind Dir Waves Ship Positions

Axantha II

Last reported at 2015-Aug-09 01:32 UTC. Time now 2015-Aug-28 07:30 UTC.
Position N 42°36' E 008°48'.
Warning: this ship's position is 19 days out of date.

Length 43 m; draft 2.8 m.

Type: Pleasure craft. MMSI: 255804580.

Date/timePositionNaut miles runAvg speedWind from/ knotsBaromVisibWave heightAir tempDewpointWater temp
2015-Aug-09 01:32N 42°36' E 008°48'0 0.0
2015-Aug-09 00:30N 42°36' E 008°48'32 5.1
2015-Aug-08 18:13N 42°58' E 009°20'7 0.7
2015-Aug-08 09:07N 42°59' E 009°29'5 8.3
2015-Aug-08 08:33N 43°01' E 009°23'7 0.3
2015-Aug-07 12:33N 42°59' E 009°14'1212.4
2015-Aug-07 11:33N 43°05' E 008°59'1312.8
2015-Aug-07 10:33N 43°11' E 008°43'2613.0
2015-Aug-07 08:34N 43°21' E 008°11'1212.0
2015-Aug-07 07:32N 43°27' E 007°56'  
2015-Aug-04 11:28N 43°42' E 007°17'8 2.5
2015-Aug-04 08:26N 43°35' E 007°13'7 7.9
2015-Aug-04 07:30N 43°32' E 007°04'0 0.0
2015-Aug-04 06:29N 43°32' E 007°04'0 0.0
2015-Aug-04 05:28N 43°32' E 007°04'0 0.0
2015-Aug-04 04:15N 43°32' E 007°04'0 0.0
2015-Aug-04 03:33N 43°32' E 007°04'0 0.0
2015-Aug-04 02:23N 43°32' E 007°04'0 0.0
2015-Aug-04 01:12N 43°32' E 007°04'0 0.0
2015-Aug-03 23:15N 43°32' E 007°04'0 0.0
2015-Aug-03 22:09N 43°32' E 007°04'0 0.0
2015-Aug-03 21:07N 43°32' E 007°04'3 4.7
2015-Aug-03 20:28N 43°29' E 007°02'6 7.0
2015-Aug-03 19:33N 43°26' E 006°54'0 0.0
2015-Aug-03 18:33N 43°26' E 006°54'0 0.0
2015-Aug-03 17:33N 43°26' E 006°54'0 0.0
2015-Aug-03 16:33N 43°26' E 006°54'0 0.0
2015-Aug-03 15:20N 43°26' E 006°54'0 0.0
2015-Aug-03 14:32N 43°26' E 006°54'0 0.0
2015-Aug-03 13:33N 43°26' E 006°54'0 0.0
2015-Aug-03 12:30N 43°26' E 006°54'0 0.0
2015-Aug-03 11:34N 43°26' E 006°54'8 8.0
2015-Aug-03 10:33N 43°21' E 006°45'7 6.5
2015-Aug-03 09:26N 43°17' E 006°37'0 0.0
2015-Aug-03 08:33N 43°17' E 006°37'0 0.0
2015-Aug-03 06:33N 43°17' E 006°37'0 0.0
2015-Aug-03 05:33N 43°17' E 006°37'0 0.0
2015-Aug-03 04:33N 43°17' E 006°37'0 0.0
2015-Aug-03 03:33N 43°17' E 006°37'0 0.0
2015-Aug-03 02:30N 43°17' E 006°37'0 0.0
2015-Aug-03 01:32N 43°17' E 006°37'0 0.0
2015-Aug-03 00:34N 43°17' E 006°37'0 0.0
2015-Aug-02 23:32N 43°17' E 006°37'0 0.0
2015-Aug-02 22:33N 43°17' E 006°37'0 0.0
2015-Aug-02 21:27N 43°17' E 006°37'0 0.0
2015-Aug-02 20:33N 43°17' E 006°37'0 0.0
2015-Aug-02 19:33N 43°17' E 006°37'1 0.5
2015-Aug-02 18:33N 43°17' E 006°38'4 3.8
2015-Aug-02 17:33N 43°14' E 006°40'0 0.0
2015-Aug-02 16:33N 43°14' E 006°40'0 0.0
2015-Aug-02 15:32N 43°14' E 006°40'0 0.0
2015-Aug-02 14:33N 43°14' E 006°40'0 0.0
2015-Aug-02 13:33N 43°14' E 006°40'0 0.0
2015-Aug-02 12:33N 43°14' E 006°40'0 0.0
2015-Aug-02 11:28N 43°14' E 006°40'0 0.0
2015-Aug-02 10:33N 43°14' E 006°40'0 0.0
2015-Aug-02 09:33N 43°14' E 006°40'0 0.5
2015-Aug-02 08:33N 43°14' E 006°41'4 3.6
2015-Aug-02 07:27N 43°17' E 006°37'0 0.0
2015-Aug-02 06:33N 43°17' E 006°37'0 0.0
2015-Aug-02 05:32N 43°17' E 006°37'3 3.2
2015-Aug-02 04:33N 43°17' E 006°42'1110.6
2015-Aug-02 03:33N 43°15' E 006°56'1110.4
2015-Aug-02 02:32N 43°14' E 007°10'116 8.8
2015-Aug-01 13:19N 43°04' E 009°49'0 0.0
2015-Aug-01 12:33N 43°04' E 009°49'69 1.5
2015-Jul-30 15:30N 42°21' E 011°02'  
Track history (hours):
 
Tides and Currents Weather Stations Pressure Air Temp Water Temp Dewpoint Dewpoint Depression Visibility Wind Speed Wind Dir Waves Ship Positions

Axantha II

Last reported at 2015-Aug-09 01:32 UTC. Time now 2015-Aug-28 07:30 UTC.
Position N 42°36' E 008°48'.
Warning: this ship's position is 19 days out of date.

Length 43 m; draft 2.8 m.

Type: Pleasure craft. MMSI: 255804580.

Date/timePositionNaut miles runAvg speedWind from/ knotsBaromVisibWave heightAir tempDewpointWater temp
2015-Aug-09 01:32N 42°36' E 008°48'0 0.0
2015-Aug-09 00:30N 42°36' E 008°48'32 5.1
2015-Aug-08 18:13N 42°58' E 009°20'7 0.7
2015-Aug-08 09:07N 42°59' E 009°29'5 8.3
2015-Aug-08 08:33N 43°01' E 009°23'7 0.3
2015-Aug-07 12:33N 42°59' E 009°14'1212.4
2015-Aug-07 11:33N 43°05' E 008°59'1312.8
2015-Aug-07 10:33N 43°11' E 008°43'2613.0
2015-Aug-07 08:34N 43°21' E 008°11'1212.0
2015-Aug-07 07:32N 43°27' E 007°56'  
2015-Aug-04 11:28N 43°42' E 007°17'8 2.5
2015-Aug-04 08:26N 43°35' E 007°13'7 7.9
2015-Aug-04 07:30N 43°32' E 007°04'0 0.0
2015-Aug-04 06:29N 43°32' E 007°04'0 0.0
2015-Aug-04 05:28N 43°32' E 007°04'0 0.0
2015-Aug-04 04:15N 43°32' E 007°04'0 0.0
2015-Aug-04 03:33N 43°32' E 007°04'0 0.0
2015-Aug-04 02:23N 43°32' E 007°04'0 0.0
2015-Aug-04 01:12N 43°32' E 007°04'0 0.0
2015-Aug-03 23:15N 43°32' E 007°04'0 0.0
2015-Aug-03 22:09N 43°32' E 007°04'0 0.0
2015-Aug-03 21:07N 43°32' E 007°04'3 4.7
2015-Aug-03 20:28N 43°29' E 007°02'6 7.0
2015-Aug-03 19:33N 43°26' E 006°54'0 0.0
2015-Aug-03 18:33N 43°26' E 006°54'0 0.0
2015-Aug-03 17:33N 43°26' E 006°54'0 0.0
2015-Aug-03 16:33N 43°26' E 006°54'0 0.0
2015-Aug-03 15:20N 43°26' E 006°54'0 0.0
2015-Aug-03 14:32N 43°26' E 006°54'0 0.0
2015-Aug-03 13:33N 43°26' E 006°54'0 0.0
2015-Aug-03 12:30N 43°26' E 006°54'0 0.0
2015-Aug-03 11:34N 43°26' E 006°54'8 8.0
2015-Aug-03 10:33N 43°21' E 006°45'7 6.5
2015-Aug-03 09:26N 43°17' E 006°37'0 0.0
2015-Aug-03 08:33N 43°17' E 006°37'0 0.0
2015-Aug-03 06:33N 43°17' E 006°37'0 0.0
2015-Aug-03 05:33N 43°17' E 006°37'0 0.0
2015-Aug-03 04:33N 43°17' E 006°37'0 0.0
2015-Aug-03 03:33N 43°17' E 006°37'0 0.0
2015-Aug-03 02:30N 43°17' E 006°37'0 0.0
2015-Aug-03 01:32N 43°17' E 006°37'0 0.0
2015-Aug-03 00:34N 43°17' E 006°37'0 0.0
2015-Aug-02 23:32N 43°17' E 006°37'0 0.0
2015-Aug-02 22:33N 43°17' E 006°37'0 0.0
2015-Aug-02 21:27N 43°17' E 006°37'0 0.0
2015-Aug-02 20:33N 43°17' E 006°37'0 0.0
2015-Aug-02 19:33N 43°17' E 006°37'1 0.5
2015-Aug-02 18:33N 43°17' E 006°38'4 3.8
2015-Aug-02 17:33N 43°14' E 006°40'0 0.0
2015-Aug-02 16:33N 43°14' E 006°40'0 0.0
2015-Aug-02 15:32N 43°14' E 006°40'0 0.0
2015-Aug-02 14:33N 43°14' E 006°40'0 0.0
2015-Aug-02 13:33N 43°14' E 006°40'0 0.0
2015-Aug-02 12:33N 43°14' E 006°40'0 0.0
2015-Aug-02 11:28N 43°14' E 006°40'0 0.0
2015-Aug-02 10:33N 43°14' E 006°40'0 0.0
2015-Aug-02 09:33N 43°14' E 006°40'0 0.5
2015-Aug-02 08:33N 43°14' E 006°41'4 3.6
2015-Aug-02 07:27N 43°17' E 006°37'0 0.0
2015-Aug-02 06:33N 43°17' E 006°37'0 0.0
2015-Aug-02 05:32N 43°17' E 006°37'3 3.2
2015-Aug-02 04:33N 43°17' E 006°42'1110.6
2015-Aug-02 03:33N 43°15' E 006°56'1110.4
2015-Aug-02 02:32N 43°14' E 007°10'116 8.8
2015-Aug-01 13:19N 43°04' E 009°49'0 0.0
2015-Aug-01 12:33N 43°04' E 009°49'69 1.5
2015-Jul-30 15:30N 42°21' E 011°02'  

Dump ship's entire track history